createdAt,value
2019-04-06T00:01:14.079Z,3.30
2019-04-06T00:04:01.432Z,3.45
2019-04-06T00:06:49.199Z,3.25
2019-04-06T00:09:36.931Z,3.27
2019-04-06T00:12:24.508Z,3.23
2019-04-06T00:15:12.117Z,3.16
2019-04-06T00:17:59.466Z,3.39
2019-04-06T00:20:46.701Z,3.22
2019-04-06T00:23:34.496Z,3.25
2019-04-06T00:26:22.393Z,3.26
2019-04-06T00:29:09.883Z,3.25
2019-04-06T00:32:02.163Z,3.21
2019-04-06T00:34:49.817Z,3.02
2019-04-06T00:37:37.204Z,3.22
2019-04-06T00:40:24.958Z,3.15
2019-04-06T00:43:12.910Z,2.95
2019-04-06T00:45:59.989Z,2.96
2019-04-06T00:48:47.521Z,3.13
2019-04-06T00:51:34.944Z,3.03
2019-04-06T00:54:22.769Z,3.02
2019-04-06T00:57:10.242Z,2.82
2019-04-06T00:59:57.797Z,2.75
2019-04-06T01:02:45.369Z,2.83
2019-04-06T01:05:33.018Z,2.96
2019-04-06T01:08:20.606Z,2.82
2019-04-06T01:11:07.918Z,2.92
2019-04-06T01:13:55.604Z,2.98
2019-04-06T01:16:43.119Z,3.20
2019-04-06T01:19:31.047Z,3.12
2019-04-06T01:22:18.867Z,3.02
2019-04-06T01:25:06.727Z,2.89
2019-04-06T01:27:54.456Z,2.91
2019-04-06T01:30:42.271Z,2.92
2019-04-06T01:33:29.918Z,2.82
2019-04-06T01:36:17.311Z,2.56
2019-04-06T01:39:06.534Z,2.53
2019-04-06T01:41:53.752Z,2.73
2019-04-06T01:44:41.209Z,2.67
2019-04-06T01:47:28.846Z,2.80
2019-04-06T01:50:15.940Z,2.93
2019-04-06T01:53:03.499Z,3.00
2019-04-06T01:55:51.464Z,2.84
2019-04-06T01:58:38.782Z,2.64
2019-04-06T02:01:30.523Z,2.37
2019-04-06T02:04:18.286Z,2.40
2019-04-06T02:07:06.119Z,2.77
2019-04-06T02:09:53.938Z,2.85
2019-04-06T02:12:41.346Z,2.45
2019-04-06T02:15:29.139Z,2.19
2019-04-06T02:18:17.346Z,2.31
2019-04-06T02:21:04.772Z,2.39
2019-04-06T02:23:52.173Z,2.19
2019-04-06T02:26:39.606Z,2.12
2019-04-06T02:29:27.068Z,2.23
2019-04-06T02:32:39.748Z,2.27
2019-04-06T02:35:37.378Z,2.27
2019-04-06T02:38:44.218Z,2.21
2019-04-06T02:42:03.060Z,2.16
2019-04-06T02:44:50.730Z,2.09
2019-04-06T02:47:38.280Z,2.16
2019-04-06T02:50:25.622Z,2.27
2019-04-06T02:53:13.411Z,2.35
2019-04-06T02:56:01.116Z,2.37
2019-04-06T02:58:48.610Z,2.29
2019-04-06T03:01:36.103Z,2.08
2019-04-06T03:04:23.525Z,2.05
2019-04-06T03:07:11.344Z,2.05
2019-04-06T03:09:58.874Z,2.00
2019-04-06T03:12:46.762Z,1.92
2019-04-06T03:15:34.114Z,1.88
2019-04-06T03:18:21.437Z,1.82
2019-04-06T03:21:08.830Z,1.71
2019-04-06T03:23:56.455Z,1.76
2019-04-06T03:26:44.038Z,1.92
2019-04-06T03:29:31.857Z,1.89
2019-04-06T03:32:19.324Z,1.93
2019-04-06T03:35:07.691Z,1.97
2019-04-06T03:37:55.433Z,2.02
2019-04-06T03:40:42.644Z,2.06
2019-04-06T03:43:30.460Z,1.95
2019-04-06T03:46:17.811Z,2.00
2019-04-06T03:49:05.340Z,1.98
2019-04-06T03:51:52.833Z,1.71
2019-04-06T03:54:40.245Z,1.69
2019-04-06T03:57:27.616Z,1.80
2019-04-06T04:00:16.329Z,1.68
2019-04-06T04:03:03.692Z,1.81
2019-04-06T04:05:51.186Z,1.85
2019-04-06T04:08:38.636Z,1.88
2019-04-06T04:11:26.098Z,1.83
2019-04-06T04:14:13.587Z,1.88
2019-04-06T04:17:00.931Z,1.85
2019-04-06T04:19:48.539Z,1.95
2019-04-06T04:22:35.881Z,1.78
2019-04-06T04:25:23.363Z,1.75
2019-04-06T04:28:10.999Z,1.77
2019-04-06T04:30:58.565Z,1.79
2019-04-06T04:33:45.946Z,1.75
2019-04-06T04:36:33.631Z,1.64
2019-04-06T04:39:21.157Z,1.65
2019-04-06T04:42:08.844Z,1.53
2019-04-06T04:44:56.643Z,1.79
2019-04-06T04:47:44.296Z,1.81
2019-04-06T04:50:31.787Z,1.75
2019-04-06T04:53:19.187Z,1.85
2019-04-06T04:56:07.154Z,1.82
2019-04-06T04:58:54.690Z,1.68
2019-04-06T05:01:42.225Z,1.70
2019-04-06T05:04:30.018Z,1.69
2019-04-06T05:07:17.640Z,1.89
2019-04-06T05:10:05.863Z,1.89
2019-04-06T05:12:53.640Z,1.81
2019-04-06T05:16:09.744Z,1.92
2019-04-06T05:18:57.407Z,2.07
2019-04-06T05:21:45.133Z,2.17
2019-04-06T05:24:32.740Z,2.40
2019-04-06T05:27:20.732Z,2.29
2019-04-06T05:30:09.410Z,2.58
2019-04-06T05:32:56.902Z,2.57
2019-04-06T05:35:44.603Z,2.75
2019-04-06T05:38:32.043Z,3.23
2019-04-06T05:41:19.622Z,3.94
2019-04-06T05:44:07.161Z,4.59
2019-04-06T05:46:54.598Z,5.28
2019-04-06T05:49:42.296Z,5.92
2019-04-06T05:52:29.638Z,6.62
2019-04-06T05:55:17.310Z,7.24
2019-04-06T05:58:09.673Z,7.61
2019-04-06T06:00:54.269Z,7.79
2019-04-06T06:03:41.778Z,8.02
2019-04-06T06:06:29.560Z,8.27
2019-04-06T06:09:17.298Z,8.61
2019-04-06T06:12:05.032Z,8.60
2019-04-06T06:14:52.522Z,8.58
2019-04-06T06:17:40.169Z,8.54
2019-04-06T06:20:27.199Z,8.08
2019-04-06T06:23:14.557Z,8.04
2019-04-06T06:26:02.548Z,8.14
2019-04-06T06:28:50.449Z,8.13
2019-04-06T06:31:38.016Z,8.10
2019-04-06T06:34:25.158Z,8.18
2019-04-06T06:37:13.141Z,8.28
2019-04-06T06:40:00.669Z,8.23
2019-04-06T06:42:48.634Z,8.38
2019-04-06T06:45:35.882Z,8.13
2019-04-06T06:48:23.485Z,8.05
2019-04-06T06:51:10.958Z,7.95
2019-04-06T06:53:58.738Z,8.03
2019-04-06T06:56:46.249Z,8.16
2019-04-06T06:59:33.995Z,8.17
2019-04-06T07:02:21.331Z,8.75
2019-04-06T07:05:08.898Z,9.02
2019-04-06T07:07:56.525Z,8.82
2019-04-06T07:10:43.890Z,8.36
2019-04-06T07:13:35.073Z,8.60
2019-04-06T07:16:22.828Z,8.79
2019-04-06T07:19:10.206Z,8.54
2019-04-06T07:21:58.303Z,9.20
2019-04-06T07:24:45.982Z,9.70
2019-04-06T07:27:33.604Z,9.67
2019-04-06T07:30:20.947Z,9.80
2019-04-06T07:33:08.128Z,9.87
2019-04-06T07:35:55.256Z,9.73
2019-04-06T07:38:43.231Z,9.39
2019-04-06T07:41:30.798Z,9.24
2019-04-06T07:44:18.371Z,9.37
2019-04-06T07:47:05.955Z,8.87
2019-04-06T07:49:53.591Z,9.30
2019-04-06T07:52:41.141Z,8.87
2019-04-06T07:55:28.926Z,9.40
2019-04-06T07:58:16.702Z,9.71
2019-04-06T08:01:04.214Z,9.89
2019-04-06T08:03:51.645Z,9.99
2019-04-06T08:06:38.907Z,10.15
2019-04-06T08:09:26.434Z,10.80
2019-04-06T08:12:14.282Z,10.88
2019-04-06T08:15:02.206Z,11.06
2019-04-06T08:17:49.755Z,11.57
2019-04-06T08:20:37.322Z,11.56
2019-04-06T08:23:25.272Z,11.87
2019-04-06T08:26:13.206Z,11.58
2019-04-06T08:29:02.725Z,11.42
2019-04-06T08:31:50.398Z,11.29
2019-04-06T08:34:38.105Z,11.50
2019-04-06T08:37:26.010Z,10.82
2019-04-06T08:40:13.375Z,11.13
2019-04-06T08:43:00.887Z,11.48
2019-04-06T08:45:48.311Z,11.05
2019-04-06T08:48:35.709Z,11.14
2019-04-06T08:51:23.032Z,9.64
2019-04-06T08:54:10.816Z,9.43
2019-04-06T08:56:57.961Z,9.69
2019-04-06T08:59:45.920Z,10.21
2019-04-06T09:02:33.562Z,10.36
2019-04-06T09:05:21.186Z,9.94
2019-04-06T09:08:08.171Z,10.23
2019-04-06T09:10:55.603Z,10.19
2019-04-06T09:13:42.851Z,10.35
2019-04-06T09:16:30.017Z,10.47
2019-04-06T09:19:17.310Z,10.61
2019-04-06T09:22:05.062Z,10.49
2019-04-06T09:24:53.017Z,10.87
2019-04-06T09:27:40.460Z,10.92
2019-04-06T09:30:27.968Z,10.74
2019-04-06T09:33:15.350Z,10.69
2019-04-06T09:36:03.004Z,10.80
2019-04-06T09:38:50.840Z,10.66
2019-04-06T09:41:38.258Z,10.78
2019-04-06T09:44:36.522Z,10.89
2019-04-06T09:47:32.238Z,10.78
2019-04-06T09:50:38.768Z,10.97
2019-04-06T09:54:05.215Z,11.10
2019-04-06T09:57:15.164Z,11.03
2019-04-06T10:00:11.711Z,10.83
2019-04-06T10:03:18.219Z,10.70
2019-04-06T10:06:15.659Z,10.31
2019-04-06T10:09:21.031Z,10.55
2019-04-06T10:12:36.975Z,10.48
2019-04-06T10:15:42.512Z,10.33
2019-04-06T10:18:49.249Z,10.89
2019-04-06T10:21:54.594Z,10.58
2019-04-06T10:24:59.866Z,10.72
2019-04-06T10:28:05.186Z,11.19
2019-04-06T10:31:12.859Z,11.37
2019-04-06T10:34:19.719Z,11.19
2019-04-06T10:37:23.131Z,11.05
2019-04-06T10:40:29.524Z,11.25
2019-04-06T10:43:21.916Z,11.28
2019-04-06T10:46:38.591Z,11.14
2019-04-06T10:49:43.647Z,11.30
2019-04-06T10:53:08.405Z,11.16
2019-04-06T10:56:08.494Z,11.02
2019-04-06T10:59:12.243Z,11.49
2019-04-06T11:02:17.648Z,11.71
2019-04-06T11:05:11.427Z,11.33
2019-04-06T11:08:27.049Z,11.57
2019-04-06T11:11:51.852Z,11.69
2019-04-06T11:14:56.246Z,11.71
2019-04-06T11:17:53.439Z,11.71
2019-04-06T11:20:48.604Z,11.68
2019-04-06T11:23:53.736Z,11.49
2019-04-06T11:26:53.565Z,11.48
2019-04-06T11:29:58.519Z,11.58
2019-04-06T11:33:03.642Z,11.38
2019-04-06T11:36:04.995Z,11.38
2019-04-06T11:39:21.135Z,11.63
2019-04-06T11:42:37.324Z,12.08
2019-04-06T11:45:49.626Z,11.90
2019-04-06T11:49:02.833Z,12.33
2019-04-06T11:52:14.001Z,12.43
2019-04-06T11:55:09.088Z,12.29
2019-04-06T11:58:08.155Z,12.40
2019-04-06T12:01:17.603Z,12.41
2019-04-06T12:04:30.398Z,12.45
2019-04-06T12:07:35.720Z,12.40
2019-04-06T12:10:36.507Z,12.27
2019-04-06T12:13:33.452Z,12.11
2019-04-06T12:16:39.187Z,12.17
2019-04-06T12:19:55.157Z,12.44
2019-04-06T12:22:52.296Z,12.96
2019-04-06T12:26:14.351Z,13.06
2019-04-06T12:29:16.137Z,12.98
2019-04-06T12:32:15.628Z,13.13
2019-04-06T12:35:20.509Z,13.53
2019-04-06T12:38:21.201Z,13.51
2019-04-06T12:41:23.823Z,13.15
2019-04-06T12:44:29.693Z,12.73
2019-04-06T12:47:35.582Z,12.90
2019-04-06T12:50:47.205Z,13.02
2019-04-06T12:53:53.843Z,13.07
2019-04-06T12:57:00.226Z,13.42
2019-04-06T13:00:03.368Z,13.50
2019-04-06T13:03:11.006Z,12.76
2019-04-06T13:06:16.796Z,13.06
2019-04-06T13:09:34.042Z,12.98
2019-04-06T13:12:49.444Z,13.50
2019-04-06T13:15:56.281Z,13.61
2019-04-06T13:19:06.641Z,13.42
2019-04-06T13:22:10.228Z,13.67
2019-04-06T13:25:05.392Z,13.67
2019-04-06T13:28:18.298Z,13.38
2019-04-06T13:31:33.946Z,13.17
2019-04-06T13:34:31.229Z,13.20
2019-04-06T13:37:33.149Z,12.93
2019-04-06T13:40:42.748Z,12.81
2019-04-06T13:43:52.327Z,12.98
2019-04-06T13:46:48.139Z,13.16
2019-04-06T13:49:43.308Z,13.10
2019-04-06T13:52:46.632Z,13.02
2019-04-06T13:55:51.226Z,13.17
2019-04-06T13:58:50.957Z,13.25
2019-04-06T14:01:56.397Z,13.23
2019-04-06T14:05:01.371Z,13.43
2019-04-06T14:08:17.051Z,13.51
2019-04-06T14:11:23.557Z,13.59
2019-04-06T14:14:45.881Z,13.57
2019-04-06T14:17:43.788Z,13.51
2019-04-06T14:20:54.387Z,13.45
2019-04-06T14:24:01.050Z,13.56
2019-04-06T14:27:06.472Z,13.73
2019-04-06T14:30:11.270Z,13.65
2019-04-06T14:33:06.900Z,13.55
2019-04-06T14:36:11.890Z,13.37
2019-04-06T14:39:11.824Z,13.52
2019-04-06T14:42:30.481Z,13.53
2019-04-06T14:45:44.344Z,13.47
2019-04-06T14:48:40.614Z,13.76
2019-04-06T14:51:40.525Z,13.79
2019-04-06T14:54:47.024Z,13.86
2019-04-06T14:57:42.325Z,13.90
2019-04-06T15:00:39.768Z,14.13
2019-04-06T15:03:39.162Z,14.08
2019-04-06T15:06:41.575Z,14.07
2019-04-06T15:09:37.245Z,14.02
2019-04-06T15:12:31.517Z,13.93
2019-04-06T15:15:36.872Z,13.79
2019-04-06T15:18:49.529Z,13.64
2019-04-06T15:22:03.459Z,13.80
2019-04-06T15:25:05.919Z,14.05
2019-04-06T15:28:11.302Z,14.39
2019-04-06T15:31:16.338Z,14.48
2019-04-06T15:34:26.244Z,14.68
2019-04-06T15:37:32.700Z,14.65
2019-04-06T15:40:36.162Z,14.75
2019-04-06T15:43:42.586Z,14.71
2019-04-06T15:46:52.133Z,14.53
2019-04-06T15:50:01.455Z,14.57
2019-04-06T15:52:54.740Z,14.52
2019-04-06T15:56:03.721Z,14.41
2019-04-06T15:58:59.743Z,14.26
2019-04-06T16:02:06.369Z,14.33
2019-04-06T16:05:16.164Z,14.28
2019-04-06T16:08:19.567Z,14.37
2019-04-06T16:11:25.376Z,14.27
2019-04-06T16:14:44.797Z,14.37
2019-04-06T16:17:39.196Z,14.35
2019-04-06T16:20:59.199Z,14.29
2019-04-06T16:24:02.158Z,14.20
2019-04-06T16:26:53.871Z,14.18
2019-04-06T16:29:47.477Z,14.14
2019-04-06T16:32:50.191Z,14.05
2019-04-06T16:35:49.046Z,13.82
2019-04-06T16:38:54.350Z,13.77
2019-04-06T16:41:57.812Z,13.71
2019-04-06T16:45:23.031Z,13.60
2019-04-06T16:48:44.509Z,13.58
2019-04-06T16:51:44.896Z,13.50
2019-04-06T16:54:41.656Z,13.37
2019-04-06T16:57:46.966Z,13.28
2019-04-06T17:01:06.520Z,13.07
2019-04-06T17:04:15.939Z,12.98
2019-04-06T17:07:26.319Z,12.88
2019-04-06T17:10:20.741Z,12.93
2019-04-06T17:13:27.077Z,12.84
2019-04-06T17:16:33.142Z,12.79
2019-04-06T17:19:34.817Z,12.63
2019-04-06T17:22:43.037Z,12.47
2019-04-06T17:25:49.927Z,12.39
2019-04-06T17:28:54.948Z,12.27
2019-04-06T17:32:01.347Z,12.15
2019-04-06T17:35:09.312Z,12.07
2019-04-06T17:38:02.534Z,11.99
2019-04-06T17:41:07.661Z,11.88
2019-04-06T17:44:07.337Z,11.85
2019-04-06T17:47:18.133Z,11.73
2019-04-06T17:50:23.482Z,11.74
2019-04-06T17:53:36.214Z,11.48
2019-04-06T17:56:41.513Z,11.43
2019-04-06T17:59:47.047Z,11.37
2019-04-06T18:02:51.110Z,11.33
2019-04-06T18:05:56.974Z,11.19
2019-04-06T18:09:08.904Z,11.11
2019-04-06T18:12:15.119Z,11.05
2019-04-06T18:15:03.481Z,10.92
2019-04-06T18:17:51.000Z,10.84
2019-04-06T18:20:38.387Z,10.97
2019-04-06T18:23:25.837Z,10.79
2019-04-06T18:26:13.204Z,10.61
2019-04-06T18:29:00.919Z,10.54
2019-04-06T18:31:58.140Z,10.60
2019-04-06T18:34:45.836Z,10.81
2019-04-06T18:37:44.784Z,10.77
2019-04-06T18:40:32.255Z,10.77
2019-04-06T18:43:20.731Z,10.68
2019-04-06T18:46:08.124Z,10.54
2019-04-06T18:48:55.701Z,10.57
2019-04-06T18:51:43.400Z,10.56
2019-04-06T18:54:31.266Z,10.25
2019-04-06T18:57:18.860Z,10.12
2019-04-06T19:00:11.580Z,10.09
2019-04-06T19:03:11.071Z,10.17
2019-04-06T19:05:49.826Z,10.02
2019-04-06T19:08:36.581Z,10.01
2019-04-06T19:11:24.235Z,9.75
2019-04-06T19:14:12.378Z,9.68
2019-04-06T19:16:59.740Z,9.72
2019-04-06T19:19:47.167Z,9.69
2019-04-06T19:22:34.341Z,9.63
2019-04-06T19:25:22.128Z,9.54
2019-04-06T19:28:09.734Z,9.51
2019-04-06T19:30:57.634Z,9.52
2019-04-06T19:33:45.634Z,9.47
2019-04-06T19:36:33.460Z,9.46
2019-04-06T19:39:20.805Z,9.69
2019-04-06T19:42:08.469Z,9.69
2019-04-06T19:44:55.909Z,9.56
2019-04-06T19:47:43.647Z,9.57
2019-04-06T19:50:30.875Z,9.69
2019-04-06T19:53:18.418Z,9.58
2019-04-06T19:56:05.895Z,9.63
2019-04-06T19:58:54.020Z,9.63
2019-04-06T20:02:41.865Z,9.70
2019-04-06T20:05:29.572Z,9.52
2019-04-06T20:08:17.463Z,9.49
2019-04-06T20:11:05.498Z,9.39
2019-04-06T20:13:53.852Z,9.24
2019-04-06T20:16:41.955Z,9.18
2019-04-06T20:19:29.552Z,9.10
2019-04-06T20:22:18.135Z,9.07
2019-04-06T20:25:06.295Z,9.00
2019-04-06T20:27:53.944Z,9.03
2019-04-06T20:30:42.052Z,8.86
2019-04-06T20:33:29.542Z,8.78
2019-04-06T20:36:17.075Z,8.77
2019-04-06T20:39:25.837Z,8.80
2019-04-06T20:42:13.468Z,8.82
2019-04-06T20:45:00.937Z,8.84
2019-04-06T20:47:48.521Z,8.72
2019-04-06T20:50:36.417Z,8.74
2019-04-06T20:53:24.138Z,8.67
2019-04-06T20:56:11.838Z,8.68
2019-04-06T20:58:59.903Z,8.60
2019-04-06T21:01:47.155Z,8.56
2019-04-06T21:04:37.330Z,8.51
2019-04-06T21:07:25.056Z,8.53
2019-04-06T21:10:13.801Z,8.68
2019-04-06T21:13:01.394Z,8.46
2019-04-06T21:15:48.930Z,8.47
2019-04-06T21:18:36.714Z,8.47
2019-04-06T21:21:24.841Z,8.43
2019-04-06T21:24:12.549Z,8.24
2019-04-06T21:27:00.120Z,8.26
2019-04-06T21:29:47.783Z,8.36
2019-04-06T21:32:36.091Z,8.32
2019-04-06T21:35:23.577Z,8.26
2019-04-06T21:38:14.318Z,8.23
2019-04-06T21:41:01.569Z,8.37
2019-04-06T21:43:49.509Z,8.30
2019-04-06T21:46:38.027Z,8.17
2019-04-06T21:49:25.766Z,8.17
2019-04-06T21:52:13.363Z,8.19
2019-04-06T21:55:01.018Z,8.21
2019-04-06T21:57:48.575Z,8.21
2019-04-06T22:00:52.754Z,8.45
2019-04-06T22:03:40.794Z,8.32
2019-04-06T22:06:28.325Z,8.16
2019-04-06T22:09:16.380Z,8.22
2019-04-06T22:12:04.881Z,8.25
2019-04-06T22:14:52.942Z,8.24
2019-04-06T22:17:41.011Z,8.04
2019-04-06T22:20:28.946Z,8.02
2019-04-06T22:23:16.760Z,8.04
2019-04-06T22:26:04.582Z,8.03
2019-04-06T22:28:52.302Z,7.95
2019-04-06T22:31:39.835Z,7.73
2019-04-06T22:34:36.973Z,7.91
2019-04-06T22:37:16.622Z,8.08
2019-04-06T22:42:34.251Z,8.00
2019-04-06T22:45:23.264Z,7.89
2019-04-06T22:48:10.830Z,7.84
2019-04-06T22:50:58.711Z,7.63
2019-04-06T22:53:46.467Z,7.75
2019-04-06T22:56:33.914Z,7.72
2019-04-06T22:59:21.196Z,7.55
2019-04-06T23:02:09.332Z,7.41
2019-04-06T23:05:06.220Z,7.45
2019-04-06T23:07:53.658Z,7.15
2019-04-06T23:10:41.178Z,7.33
2019-04-06T23:13:29.222Z,7.26
2019-04-06T23:16:16.992Z,7.29
2019-04-06T23:19:05.134Z,7.55
2019-04-06T23:21:53.159Z,7.40
2019-04-06T23:24:40.949Z,7.40
2019-04-06T23:27:28.273Z,7.28
2019-04-06T23:30:16.053Z,7.38
2019-04-06T23:33:03.964Z,7.10
2019-04-06T23:35:51.746Z,7.33
2019-04-06T23:38:39.521Z,7.41
2019-04-06T23:41:26.775Z,7.16
2019-04-06T23:44:14.649Z,7.08
2019-04-06T23:47:03.235Z,7.05
2019-04-06T23:49:51.755Z,7.06
2019-04-06T23:52:39.086Z,7.25
2019-04-06T23:55:27.148Z,7.36
2019-04-06T23:58:14.473Z,7.37
